createdAt,value
2022-09-28T00:01:40.996Z,98713.60
2022-09-28T00:06:40.025Z,98708.00
2022-09-28T00:11:39.552Z,98706.00
2022-09-28T00:16:43.731Z,98702.60
2022-09-28T00:21:44.842Z,98706.00
2022-09-28T00:26:48.368Z,98708.80
2022-09-28T00:32:04.218Z,98698.00
2022-09-28T00:37:19.456Z,98691.60
2022-09-28T00:42:25.538Z,98681.40
2022-09-28T00:47:52.230Z,98695.40
2022-09-28T00:53:13.121Z,98704.80
2022-09-28T00:58:27.568Z,98695.20
2022-09-28T01:03:33.754Z,98707.40
2022-09-28T01:08:38.250Z,98700.80
2022-09-28T01:13:37.718Z,98698.40
2022-09-28T01:18:48.912Z,98700.40
2022-09-28T01:24:31.343Z,98694.20
2022-09-28T01:29:48.336Z,98691.60
2022-09-28T01:34:58.992Z,98691.00
2022-09-28T01:40:05.664Z,98687.60
2022-09-28T01:45:13.051Z,98689.40
2022-09-28T01:50:18.642Z,98690.80
2022-09-28T01:55:26.981Z,98690.80
2022-09-28T02:00:29.746Z,98693.80
2022-09-28T02:05:35.484Z,98694.60
2022-09-28T02:10:41.008Z,98693.20
2022-09-28T02:15:51.732Z,98685.60
2022-09-28T02:21:01.154Z,98679.60
2022-09-28T02:26:10.858Z,98684.20
2022-09-28T02:31:10.443Z,98698.40
2022-09-28T02:36:11.269Z,98703.00
2022-09-28T02:41:23.708Z,98703.20
2022-09-28T02:46:40.618Z,98699.40
2022-09-28T02:52:24.062Z,98699.80
2022-09-28T02:57:38.965Z,98692.80
2022-09-28T03:02:56.621Z,98692.40
2022-09-28T03:08:04.330Z,98690.20
2022-09-28T03:13:04.770Z,98692.00
2022-09-28T03:18:04.969Z,98689.20
2022-09-28T03:28:24.557Z,98691.40
2022-09-28T03:33:25.110Z,98696.40
2022-09-28T03:38:25.452Z,98691.80
2022-09-28T03:43:33.064Z,98695.60
2022-09-28T03:48:35.496Z,98696.00
2022-09-28T03:53:36.510Z,98687.20
2022-09-28T03:58:35.926Z,98685.60
2022-09-28T04:03:35.185Z,98690.40
2022-09-28T04:08:34.227Z,98689.40
2022-09-28T04:13:34.234Z,98693.20
2022-09-28T04:18:34.658Z,98689.20
2022-09-28T04:23:44.138Z,98687.00
2022-09-28T04:29:05.479Z,98693.40
2022-09-28T04:34:05.620Z,98698.40
2022-09-28T04:39:05.112Z,98697.00
2022-09-28T04:44:05.757Z,98690.20
2022-09-28T04:49:05.740Z,98693.20
2022-09-28T04:54:15.986Z,98687.00
2022-09-28T04:59:15.261Z,98689.00
2022-09-28T05:04:14.560Z,98686.80
2022-09-28T05:09:27.103Z,98685.40
2022-09-28T05:14:26.419Z,98691.00
2022-09-28T05:19:25.160Z,98690.40
2022-09-28T05:24:26.068Z,98694.40
2022-09-28T05:29:53.388Z,98693.00
2022-09-28T05:35:14.956Z,98703.20
2022-09-28T05:40:17.507Z,98703.60
2022-09-28T05:45:18.347Z,98706.00
2022-09-28T05:50:17.667Z,98705.60
2022-09-28T05:55:17.239Z,98713.60
2022-09-28T06:00:18.952Z,98721.40
2022-09-28T06:05:23.555Z,98723.40
2022-09-28T06:10:23.607Z,98727.40
2022-09-28T06:15:22.702Z,98741.80
2022-09-28T06:20:22.161Z,98743.40
2022-09-28T06:25:41.939Z,98742.40
2022-09-28T06:30:43.467Z,98739.40
2022-09-28T06:35:44.885Z,98732.80
2022-09-28T06:40:43.514Z,98735.20
2022-09-28T06:45:44.934Z,98737.20
2022-09-28T06:51:13.238Z,98733.80
2022-09-28T06:56:32.538Z,98733.80
2022-09-28T07:01:31.621Z,98743.40
2022-09-28T07:06:52.852Z,98749.40
2022-09-28T07:12:18.279Z,98758.60
2022-09-28T07:17:26.119Z,98760.80
2022-09-28T07:22:38.027Z,98765.60
2022-09-28T07:27:39.804Z,98759.80
2022-09-28T07:32:57.748Z,98758.40
2022-09-28T07:38:15.348Z,98754.40
2022-09-28T07:43:14.431Z,98760.60
2022-09-28T07:48:15.382Z,98761.80
2022-09-28T07:53:31.024Z,98762.20
2022-09-28T07:58:43.721Z,98759.60
2022-09-28T08:04:14.835Z,98762.60
2022-09-28T08:09:15.792Z,98776.00
2022-09-28T08:14:34.825Z,98781.40
2022-09-28T08:20:02.239Z,98784.00
2022-09-28T08:25:01.309Z,98787.20
2022-09-28T08:30:20.109Z,98786.00
2022-09-28T08:35:40.374Z,98793.60
2022-09-28T08:40:57.820Z,98791.00
2022-09-28T08:46:07.340Z,98790.40
2022-09-28T08:51:52.102Z,98796.60
2022-09-28T08:57:06.855Z,98801.00
2022-09-28T09:02:16.129Z,98801.00
2022-09-28T09:07:49.958Z,98802.40
2022-09-28T09:13:01.981Z,98807.20
2022-09-28T09:18:20.023Z,98804.60
2022-09-28T09:23:57.509Z,98804.40
2022-09-28T09:29:18.985Z,98800.60
2022-09-28T09:34:44.077Z,98799.40
2022-09-28T09:40:26.354Z,98807.60
2022-09-28T09:45:53.767Z,98813.80
2022-09-28T09:51:25.026Z,98815.00
2022-09-28T09:56:34.760Z,98821.00
2022-09-28T10:01:47.459Z,98815.20
2022-09-28T10:07:02.771Z,98820.20
2022-09-28T10:12:04.386Z,98824.20
2022-09-28T10:17:06.563Z,98816.60
2022-09-28T10:22:30.846Z,98825.40
2022-09-28T10:27:36.820Z,98826.80
2022-09-28T10:32:45.096Z,98824.40
2022-09-28T10:37:56.666Z,98826.80
2022-09-28T10:43:22.933Z,98822.00
2022-09-28T10:48:24.913Z,98828.80
2022-09-28T10:53:25.621Z,98823.40
2022-09-28T10:58:48.352Z,98811.80
2022-09-28T11:03:59.839Z,98819.60
2022-09-28T11:09:02.051Z,98818.80
2022-09-28T11:14:04.183Z,98820.20
2022-09-28T11:19:30.799Z,98819.80
2022-09-28T11:24:30.289Z,98817.20
2022-09-28T11:29:40.064Z,98816.40
2022-09-28T11:34:59.889Z,98813.40
2022-09-28T11:40:19.902Z,98814.20
2022-09-28T11:45:39.316Z,98815.80
2022-09-28T11:50:51.160Z,98816.40
2022-09-28T11:55:59.471Z,98813.80
2022-09-28T12:01:07.054Z,98814.00
2022-09-28T12:06:39.051Z,98816.80
2022-09-28T12:11:45.444Z,98823.00
2022-09-28T12:17:11.896Z,98827.20
2022-09-28T12:22:20.780Z,98830.40
2022-09-28T12:27:28.407Z,98833.20
2022-09-28T12:32:37.631Z,98835.80
2022-09-28T12:37:58.735Z,98828.60
2022-09-28T12:43:20.397Z,98829.40
2022-09-28T12:48:50.008Z,98829.60
2022-09-28T12:54:15.838Z,98828.80
2022-09-28T12:59:26.734Z,98826.60
2022-09-28T13:05:00.646Z,98825.80
2022-09-28T13:10:16.848Z,98829.60
2022-09-28T13:15:34.351Z,98826.20
2022-09-28T13:20:52.754Z,98825.20
2022-09-28T13:26:00.952Z,98823.80
2022-09-28T13:31:03.216Z,98824.00
2022-09-28T13:36:05.698Z,98835.40
2022-09-28T13:41:24.838Z,98833.00
2022-09-28T13:46:34.712Z,98832.00
2022-09-28T13:51:55.631Z,98834.80
2022-09-28T13:57:13.463Z,98828.40
2022-09-28T14:02:30.480Z,98830.80
2022-09-28T14:07:59.673Z,98826.80
2022-09-28T14:12:58.741Z,98829.60
2022-09-28T14:18:12.527Z,98842.20
2022-09-28T14:23:58.940Z,98838.60
2022-09-28T14:29:16.694Z,98841.00
2022-09-28T14:34:34.535Z,98843.00
2022-09-28T14:39:55.646Z,98839.40
2022-09-28T14:45:38.594Z,98840.80
2022-09-28T14:50:38.266Z,98837.60
2022-09-28T14:55:51.260Z,98836.80
2022-09-28T15:00:53.862Z,98836.20
2022-09-28T15:05:54.085Z,98834.80
2022-09-28T15:10:54.908Z,98832.60
2022-09-28T15:16:01.052Z,98841.00
2022-09-28T15:21:01.729Z,98844.20
2022-09-28T15:26:01.272Z,98840.20
2022-09-28T15:31:06.865Z,98839.80
2022-09-28T15:36:10.995Z,98845.00
2022-09-28T15:41:12.142Z,98840.00
2022-09-28T15:46:19.363Z,98833.60
2022-09-28T15:51:20.102Z,98821.20
2022-09-28T15:56:19.212Z,98819.80
2022-09-28T16:01:40.006Z,98823.60
2022-09-28T16:06:39.017Z,98810.40
2022-09-28T16:11:42.295Z,98815.60
2022-09-28T16:16:48.095Z,98829.60
2022-09-28T16:21:52.739Z,98833.20
2022-09-28T16:26:59.432Z,98833.40
2022-09-28T16:31:58.671Z,98823.00
2022-09-28T16:36:58.376Z,98815.40
2022-09-28T16:42:04.019Z,98808.20
2022-09-28T16:47:03.204Z,98813.00
2022-09-28T16:52:43.115Z,98806.20
2022-09-28T16:57:42.660Z,98805.40
2022-09-28T17:02:46.824Z,98805.00
2022-09-28T17:07:48.282Z,98807.40
2022-09-28T17:12:48.208Z,98828.80
2022-09-28T17:17:48.109Z,98819.40
2022-09-28T17:23:13.823Z,98799.80
2022-09-28T17:28:23.119Z,98810.00
2022-09-28T17:33:23.764Z,98806.60
2022-09-28T17:38:22.907Z,98803.20
2022-09-28T17:43:22.722Z,98791.80
2022-09-28T17:48:24.502Z,98797.20
2022-09-28T17:53:23.078Z,98801.80
2022-09-28T17:58:23.777Z,98811.00
2022-09-28T18:03:26.416Z,98817.40
2022-09-28T18:08:26.059Z,98824.60
2022-09-28T18:13:25.407Z,98834.80
2022-09-28T18:18:28.983Z,98840.20
2022-09-28T18:23:30.186Z,98846.80
2022-09-28T18:28:29.705Z,98861.40
2022-09-28T18:33:43.101Z,98874.40
2022-09-28T18:38:43.160Z,98883.60
2022-09-28T18:43:43.390Z,98890.00
2022-09-28T18:48:44.145Z,98898.60
2022-09-28T18:53:44.277Z,98906.80
2022-09-28T18:58:45.595Z,98910.40
2022-09-28T19:03:44.550Z,98920.60
2022-09-28T19:08:44.215Z,98927.20
2022-09-28T19:13:45.332Z,98930.00
2022-09-28T19:18:46.253Z,98933.40
2022-09-28T19:23:49.818Z,98930.00
2022-09-28T19:28:50.371Z,98931.40
2022-09-28T19:33:49.586Z,98911.20
2022-09-28T19:38:50.349Z,98903.00
2022-09-28T19:43:50.650Z,98884.20
2022-09-28T19:48:50.213Z,98874.40
2022-09-28T19:53:50.340Z,98871.20
2022-09-28T19:58:50.037Z,98873.60
2022-09-28T20:03:51.539Z,98867.40
2022-09-28T20:08:51.299Z,98856.60
2022-09-28T20:13:51.060Z,98868.60
2022-09-28T20:18:51.545Z,98874.80
2022-09-28T20:23:51.988Z,98870.60
2022-09-28T20:28:51.301Z,98873.60
2022-09-28T20:33:51.336Z,98871.80
2022-09-28T20:38:53.717Z,98872.20
2022-09-28T20:44:04.851Z,98872.60
2022-09-28T20:49:08.064Z,98868.60
2022-09-28T20:54:08.561Z,98866.00
2022-09-28T20:59:11.558Z,98854.60
2022-09-28T21:04:14.002Z,98851.60
2022-09-28T21:09:14.330Z,98855.60
2022-09-28T21:14:13.938Z,98857.40
2022-09-28T21:19:13.583Z,98861.40
2022-09-28T21:24:14.369Z,98856.20
2022-09-28T21:29:17.924Z,98855.40
2022-09-28T21:34:20.291Z,98865.60
2022-09-28T21:39:20.624Z,98864.80
2022-09-28T21:44:20.138Z,98856.40
2022-09-28T21:49:19.986Z,98854.00
2022-09-28T21:54:20.059Z,98857.80
2022-09-28T21:59:22.508Z,98864.80
2022-09-28T22:04:21.890Z,98872.20
2022-09-28T22:09:21.672Z,98873.80
2022-09-28T22:14:21.250Z,98872.00
2022-09-28T22:19:20.693Z,98881.00
2022-09-28T22:24:20.087Z,98880.60
2022-09-28T22:29:21.898Z,98891.00
2022-09-28T22:34:23.538Z,98898.80
2022-09-28T22:39:23.241Z,98905.00
2022-09-28T22:44:23.456Z,98898.60
2022-09-28T22:49:25.057Z,98898.60
2022-09-28T22:54:24.678Z,98894.20
2022-09-28T22:59:25.152Z,98887.20
2022-09-28T23:04:25.292Z,98892.00
2022-09-28T23:09:25.088Z,98897.00
2022-09-28T23:14:25.411Z,98900.20
2022-09-28T23:19:24.898Z,98904.40
2022-09-28T23:24:24.529Z,98900.80
2022-09-28T23:29:24.356Z,98907.80
2022-09-28T23:34:24.004Z,98918.00
2022-09-28T23:39:24.485Z,98921.60
2022-09-28T23:44:24.087Z,98911.60
2022-09-28T23:49:24.261Z,98915.20
2022-09-28T23:54:24.454Z,98927.80
2022-09-28T23:59:23.624Z,98945.20
